createdAt,value
2023-04-02T00:04:04.913Z,218.6931
2023-04-02T00:04:50.022Z,258.7230
2023-04-02T00:05:52.067Z,250.2009
2023-04-02T00:06:54.563Z,246.4612
2023-04-02T00:07:56.866Z,253.5474
2023-04-02T00:08:58.939Z,250.8702
2023-04-02T00:10:00.993Z,233.6827
2023-04-02T00:13:05.084Z,262.6162
2023-04-02T00:14:07.380Z,231.3417
2023-04-02T00:18:34.586Z,228.6599
2023-04-02T00:19:19.637Z,240.4821
2023-04-02T00:20:24.444Z,236.9611
2023-04-02T00:21:23.133Z,250.1658
2023-04-02T00:22:25.510Z,249.0960
2023-04-02T00:23:27.507Z,242.1655
2023-04-02T00:24:29.583Z,250.6261
2023-04-02T00:27:07.914Z,241.2221
2023-04-02T00:27:53.144Z,268.3803
2023-04-02T00:28:55.135Z,238.9196
2023-04-02T00:29:57.519Z,235.1166
2023-04-02T00:30:59.754Z,257.2115
2023-04-02T00:32:01.830Z,248.7610
2023-04-02T00:33:04.292Z,267.2177
2023-04-02T00:38:46.800Z,255.8486
2023-04-02T00:39:36.740Z,246.9814
2023-04-02T00:40:39.011Z,251.0546
2023-04-02T00:41:41.067Z,258.6641
2023-04-02T00:42:43.129Z,243.1859
2023-04-02T00:43:45.190Z,268.5500
2023-04-02T00:44:47.245Z,281.2263
2023-04-02T00:45:49.482Z,228.3574
2023-04-02T00:48:25.531Z,234.2906
2023-04-02T00:49:27.705Z,227.0989
2023-04-02T00:50:30.124Z,232.4175
2023-04-02T00:51:32.148Z,240.4858
2023-04-02T00:52:34.427Z,250.9629
2023-04-02T00:53:36.743Z,247.8861
2023-04-02T00:54:38.914Z,231.9032
2023-04-02T00:55:40.982Z,222.3604
2023-04-02T00:56:43.422Z,239.0455
2023-04-02T00:57:45.429Z,235.8111
2023-04-02T00:58:47.487Z,257.0486
2023-04-02T00:59:49.934Z,254.9514
2023-04-02T01:00:51.964Z,252.5155
2023-04-02T01:01:54.029Z,227.6366
2023-04-02T01:02:56.338Z,214.6145
2023-04-02T01:03:58.468Z,210.9413
2023-04-02T01:05:00.928Z,208.5560
2023-04-02T01:06:03.193Z,211.5005
2023-04-02T01:07:05.244Z,222.3398
2023-04-02T01:08:07.281Z,230.2783
2023-04-02T01:09:09.295Z,245.5418
2023-04-02T01:10:11.324Z,257.3586
2023-04-02T01:11:13.427Z,263.4974
2023-04-02T01:12:15.654Z,269.4355
2023-04-02T01:13:17.696Z,262.0559
2023-04-02T01:14:19.726Z,267.2782
2023-04-02T01:15:21.758Z,266.3337
2023-04-02T01:16:23.872Z,262.4212
2023-04-02T01:17:26.149Z,254.2256
2023-04-02T01:18:28.284Z,243.8283
2023-04-02T01:19:30.254Z,234.9448
2023-04-02T01:20:32.274Z,246.6959
2023-04-02T01:21:34.331Z,236.5961
2023-04-02T01:22:36.681Z,247.4449
2023-04-02T01:23:38.705Z,247.7227
2023-04-02T01:24:40.821Z,253.5451
2023-04-02T01:25:42.838Z,271.8898
2023-04-02T01:26:44.889Z,270.9452
2023-04-02T01:27:46.918Z,267.1116
2023-04-02T01:28:48.936Z,249.6951
2023-04-02T01:29:51.053Z,231.6649
2023-04-02T01:30:53.081Z,224.9869
2023-04-02T01:31:55.221Z,247.2789
2023-04-02T01:32:57.274Z,247.5569
2023-04-02T01:33:59.287Z,220.3533
2023-04-02T01:36:29.799Z,208.6708
2023-04-02T01:37:32.027Z,206.9994
2023-04-02T01:38:34.100Z,213.4581
2023-04-02T01:39:36.094Z,214.0256
2023-04-02T01:40:38.434Z,214.1115
2023-04-02T01:41:40.482Z,212.9448
2023-04-02T01:42:42.552Z,215.1111
2023-04-02T01:43:44.599Z,218.7618
2023-04-02T01:44:46.684Z,211.5570
2023-04-02T01:45:49.006Z,202.1204
2023-04-02T01:46:51.155Z,223.0552
2023-04-02T01:47:53.372Z,192.3320
2023-04-02T01:48:55.460Z,190.5842
2023-04-02T01:49:57.523Z,206.8306
2023-04-02T01:50:59.738Z,206.3481
2023-04-02T01:52:01.756Z,235.6132
2023-04-02T01:53:04.097Z,228.9549
2023-04-02T01:54:06.155Z,224.6900
2023-04-02T01:55:08.194Z,218.9142
2023-04-02T01:56:10.232Z,203.7924
2023-04-02T01:57:12.500Z,215.9298
2023-04-02T01:58:14.609Z,234.6336
2023-04-02T01:59:16.682Z,219.6543
2023-04-02T02:00:18.926Z,212.0101
2023-04-02T02:01:21.060Z,207.4451
2023-04-02T02:02:23.242Z,213.0252
2023-04-02T02:03:25.320Z,237.0482
2023-04-02T02:04:27.627Z,218.3059
2023-04-02T02:05:29.860Z,227.3639
2023-04-02T02:06:31.911Z,182.6619
2023-04-02T02:07:33.939Z,196.9483
2023-04-02T02:08:36.032Z,200.7226
2023-04-02T02:09:38.071Z,200.5560
2023-04-02T02:10:40.283Z,199.2227
2023-04-02T02:11:42.321Z,197.0004
2023-04-02T02:12:44.348Z,197.9449
2023-04-02T02:13:46.427Z,188.9447
2023-04-02T02:14:48.484Z,187.9449
2023-04-02T02:15:50.537Z,188.3893
2023-04-02T02:16:52.609Z,197.3874
2023-04-02T02:17:54.734Z,192.4759
2023-04-02T02:18:56.798Z,180.7229
2023-04-02T02:19:58.906Z,188.0557
2023-04-02T02:21:00.930Z,195.1115
2023-04-02T02:22:02.986Z,195.0004
2023-04-02T02:23:05.040Z,194.9449
2023-04-02T02:24:07.249Z,195.0004
2023-04-02T02:25:09.300Z,187.8437
2023-04-02T02:26:11.389Z,158.2008
2023-04-02T02:27:13.421Z,180.1786
2023-04-02T02:28:15.493Z,203.3342
2023-04-02T02:29:17.592Z,207.3338
2023-04-02T02:30:19.665Z,216.9832
2023-04-02T02:31:21.718Z,239.2616
2023-04-02T02:32:23.802Z,257.7733
2023-04-02T02:33:25.914Z,251.6933
2023-04-02T02:34:27.993Z,232.6758
2023-04-02T02:35:30.051Z,207.2549
2023-04-02T02:36:32.103Z,235.7244
2023-04-02T02:37:34.170Z,215.4433
2023-04-02T02:38:36.244Z,229.5177
2023-04-02T02:39:38.281Z,284.5555
2023-04-02T02:40:40.339Z,286.3350
2023-04-02T02:41:42.416Z,283.6677
2023-04-02T02:42:44.478Z,285.1678
2023-04-02T02:43:46.522Z,244.9299
2023-04-02T02:44:49.326Z,271.7515
2023-04-02T02:45:51.410Z,267.7078
2023-04-02T02:46:53.465Z,293.9271
2023-04-02T02:47:55.743Z,265.5895
2023-04-02T02:48:57.791Z,277.6669
2023-04-02T02:49:59.843Z,264.6458
2023-04-02T02:51:01.867Z,275.0654
2023-04-02T02:52:03.906Z,267.2395
2023-04-02T02:53:06.160Z,256.0561
2023-04-02T02:54:08.275Z,255.9622
2023-04-02T02:55:10.385Z,256.9824
2023-04-02T02:56:12.400Z,195.9840
2023-04-02T02:57:14.462Z,239.6674
2023-04-02T02:58:16.516Z,249.7792
2023-04-02T02:59:18.581Z,246.3893
2023-04-02T03:00:20.596Z,234.7367
2023-04-02T03:01:22.714Z,184.8921
2023-04-02T03:02:24.880Z,226.7455
2023-04-02T03:03:27.079Z,223.2233
2023-04-02T03:04:29.217Z,252.3162
2023-04-02T03:05:31.327Z,241.0208
2023-04-02T03:06:33.358Z,225.1668
2023-04-02T03:07:35.424Z,233.8898
2023-04-02T03:08:37.451Z,241.2542
2023-04-02T03:09:39.477Z,254.2083
2023-04-02T03:10:41.575Z,246.1569
2023-04-02T03:11:43.576Z,227.4794
2023-04-02T03:12:45.607Z,239.2830
2023-04-02T03:13:47.653Z,221.5851
2023-04-02T03:14:49.679Z,202.1818
2023-04-02T03:15:51.754Z,217.0413
2023-04-02T03:16:53.793Z,245.9517
2023-04-02T03:17:56.117Z,228.8892
2023-04-02T03:18:58.103Z,192.4096
2023-04-02T03:20:00.189Z,212.7980
2023-04-02T03:21:02.254Z,197.8895
2023-04-02T03:22:04.274Z,179.5560
2023-04-02T03:23:06.317Z,205.0591
2023-04-02T03:24:08.366Z,209.8889
2023-04-02T03:25:10.430Z,209.6671
2023-04-02T03:26:12.544Z,209.1671
2023-04-02T03:27:15.289Z,209.8893
2023-04-02T03:28:17.350Z,214.8095
2023-04-02T03:29:19.401Z,220.0218
2023-04-02T03:30:21.673Z,181.6115
2023-04-02T03:31:23.834Z,190.1055
2023-04-02T03:32:25.899Z,224.7338
2023-04-02T03:33:27.937Z,215.6123
2023-04-02T03:34:29.961Z,216.0421
2023-04-02T03:35:32.191Z,229.6147
2023-04-02T03:36:34.269Z,216.8331
2023-04-02T03:37:36.515Z,223.4510
2023-04-02T03:38:38.584Z,228.8893
2023-04-02T03:39:40.633Z,229.3893
2023-04-02T03:40:42.685Z,227.6115
2023-04-02T03:41:44.750Z,227.5004
2023-04-02T03:42:46.799Z,227.8893
2023-04-02T03:43:48.859Z,183.3979
2023-04-02T03:44:51.226Z,184.6174
2023-04-02T03:45:53.288Z,191.9452
2023-04-02T03:46:55.413Z,228.0149
2023-04-02T03:47:57.505Z,240.0004
2023-04-02T03:48:59.535Z,234.8334
2023-04-02T03:50:01.609Z,230.6116
2023-04-02T03:51:03.658Z,228.3341
2023-04-02T03:52:05.723Z,220.7782
2023-04-02T03:53:07.928Z,222.7776
2023-04-02T03:54:09.983Z,230.5561
2023-04-02T03:55:12.021Z,232.8741
2023-04-02T03:56:14.100Z,238.5555
2023-04-02T03:57:16.232Z,224.8103
2023-04-02T03:58:18.335Z,218.1670
2023-04-02T03:59:20.292Z,217.8337
2023-04-02T04:00:22.343Z,253.2041
2023-04-02T04:01:24.349Z,251.8783
2023-04-02T04:02:26.584Z,260.1722
2023-04-02T04:03:28.683Z,247.7274
2023-04-02T04:04:30.786Z,234.1084
2023-04-02T04:05:33.101Z,228.4448
2023-04-02T04:06:35.273Z,209.1931
2023-04-02T04:07:37.496Z,230.2341
2023-04-02T04:08:39.517Z,190.2083
2023-04-02T04:09:41.556Z,182.2822
2023-04-02T04:10:43.637Z,194.6235
2023-04-02T04:11:45.707Z,191.2908
2023-04-02T04:12:47.766Z,185.2863
2023-04-02T04:13:49.799Z,191.8462
2023-04-02T04:14:51.871Z,214.4274
2023-04-02T04:15:53.895Z,181.3886
2023-04-02T04:16:55.979Z,187.0197
2023-04-02T04:17:58.070Z,226.0593
2023-04-02T04:19:00.065Z,243.5217
2023-04-02T04:20:02.135Z,244.4804
2023-04-02T04:21:04.144Z,216.2420
2023-04-02T04:22:06.180Z,209.1918
2023-04-02T04:23:08.269Z,245.2098
2023-04-02T04:24:10.318Z,232.2434
2023-04-02T04:25:12.644Z,219.2506
2023-04-02T04:26:14.687Z,232.2228
2023-04-02T04:27:16.709Z,243.7544
2023-04-02T04:28:18.771Z,226.4447
2023-04-02T04:29:20.819Z,238.7755
2023-04-02T04:30:22.838Z,229.8763
2023-04-02T04:31:25.992Z,197.7622
2023-04-02T04:32:28.183Z,196.7649
2023-04-02T04:33:30.235Z,209.2136
2023-04-02T04:34:32.303Z,229.6667
2023-04-02T04:35:34.616Z,216.6196
2023-04-02T04:36:36.919Z,213.0188
2023-04-02T04:37:39.334Z,207.0701
2023-04-02T04:38:42.164Z,191.7595
2023-04-02T04:39:44.430Z,198.4007
2023-04-02T04:40:46.465Z,204.7757
2023-04-02T04:41:48.486Z,195.3649
2023-04-02T04:42:50.514Z,219.1707
2023-04-02T04:43:52.602Z,197.5846
2023-04-02T04:44:54.846Z,226.0013
2023-04-02T04:45:56.920Z,191.9555
2023-04-02T04:46:58.987Z,190.8648
2023-04-02T04:48:01.080Z,216.9682
2023-04-02T04:49:03.164Z,222.8315
2023-04-02T04:50:05.247Z,213.7602
2023-04-02T04:51:07.309Z,215.4776
2023-04-02T04:52:09.410Z,231.1326
2023-04-02T04:53:11.487Z,231.5699
2023-04-02T04:54:13.578Z,227.0402
2023-04-02T04:55:15.940Z,229.5462
2023-04-02T04:56:19.609Z,245.7349
2023-04-02T04:57:18.654Z,253.1456
2023-04-02T04:58:20.778Z,239.6642
2023-04-02T04:59:23.162Z,233.9593
2023-04-02T05:00:25.183Z,243.7287
2023-04-02T05:01:27.388Z,249.7622
2023-04-02T05:02:29.518Z,235.9763
2023-04-02T05:03:31.547Z,237.6099
2023-04-02T05:04:33.915Z,236.8229
2023-04-02T05:05:36.208Z,236.9277
2023-04-02T05:06:38.485Z,241.1838
2023-04-02T05:07:40.609Z,235.7249
2023-04-02T05:08:42.706Z,240.3459
2023-04-02T05:09:44.826Z,254.1012
2023-04-02T05:10:46.904Z,248.1979
2023-04-02T05:11:49.005Z,226.5884
2023-04-02T05:12:51.311Z,215.9833
2023-04-02T05:13:53.405Z,229.6660
2023-04-02T05:14:55.755Z,214.7549
2023-04-02T05:15:59.444Z,195.7279
2023-04-02T05:16:59.579Z,210.2914
2023-04-02T05:18:01.691Z,222.8345
2023-04-02T05:19:03.817Z,237.1154
2023-04-02T05:20:05.936Z,239.0474
2023-04-02T05:21:07.979Z,239.7707
2023-04-02T05:22:10.081Z,228.5212
2023-04-02T05:23:12.214Z,225.5090
2023-04-02T05:24:14.293Z,266.5055
2023-04-02T05:25:16.420Z,250.8769
2023-04-02T05:26:18.520Z,234.1461
2023-04-02T05:27:20.615Z,207.7019
2023-04-02T05:28:22.725Z,202.9906
2023-04-02T05:29:24.834Z,191.4802
2023-04-02T05:30:26.994Z,200.4294
2023-04-02T05:31:29.142Z,199.3749
2023-04-02T05:32:31.258Z,212.3795
2023-04-02T05:33:33.348Z,199.0779
2023-04-02T05:34:35.462Z,204.3842
2023-04-02T05:35:37.961Z,219.3260
2023-04-02T05:36:40.235Z,221.6250
2023-04-02T05:37:42.345Z,238.8147
2023-04-02T05:38:44.452Z,234.3978
2023-04-02T05:39:46.612Z,217.3474
2023-04-02T05:40:48.663Z,232.6380
2023-04-02T05:41:50.735Z,228.9636
2023-04-02T05:42:52.865Z,190.8150
2023-04-02T05:43:54.914Z,214.8947
2023-04-02T05:44:57.004Z,202.4261
2023-04-02T05:45:59.081Z,197.0370
2023-04-02T05:47:01.255Z,190.0689
2023-04-02T05:48:03.366Z,202.4579
2023-04-02T05:49:05.393Z,221.5988
2023-04-02T05:50:07.493Z,218.0096
2023-04-02T05:51:09.650Z,210.2862
2023-04-02T05:52:11.763Z,236.5414
2023-04-02T05:53:13.836Z,233.6113
2023-04-02T05:54:15.893Z,207.1700
2023-04-02T05:55:17.963Z,222.9248
2023-04-02T05:56:20.093Z,233.0938
2023-04-02T05:57:29.579Z,222.6731
2023-04-02T05:58:35.450Z,228.6590
2023-04-02T05:59:24.443Z,200.8053
2023-04-02T06:00:26.511Z,249.9853
2023-04-02T06:01:28.620Z,219.0367
2023-04-02T06:02:31.283Z,253.6381
2023-04-02T06:03:33.501Z,270.1065
2023-04-02T06:04:35.616Z,231.9430
2023-04-02T06:05:37.835Z,236.2854
2023-04-02T06:06:39.986Z,239.9449
2023-04-02T06:07:42.082Z,254.8296
2023-04-02T06:08:44.179Z,272.5009
2023-04-02T06:09:46.249Z,278.5048
2023-04-02T06:10:48.358Z,250.6606
2023-04-02T06:11:50.533Z,196.5920
2023-04-02T06:12:52.574Z,218.3144
2023-04-02T06:13:54.658Z,277.1198
2023-04-02T06:14:56.995Z,272.3402
2023-04-02T06:15:59.090Z,247.8005
2023-04-02T06:17:01.309Z,275.9445
2023-04-02T06:18:03.485Z,278.0562
2023-04-02T06:19:05.618Z,275.9453
2023-04-02T06:20:07.722Z,275.5008
2023-04-02T06:21:09.814Z,274.0564
2023-04-02T06:22:11.987Z,251.7313
2023-04-02T06:23:14.140Z,236.4449
2023-04-02T06:24:16.241Z,238.4995
2023-04-02T06:25:18.352Z,250.9472
2023-04-02T06:26:20.445Z,263.3721
2023-04-02T06:27:22.573Z,279.3342
2023-04-02T06:28:24.660Z,279.2230
2023-04-02T06:29:26.770Z,192.1952
2023-04-02T06:30:28.900Z,186.2226
2023-04-02T06:31:30.942Z,186.3338
2023-04-02T06:32:33.227Z,185.8338
2023-04-02T06:33:35.357Z,186.1115
2023-04-02T06:34:37.461Z,190.6671
2023-04-02T06:35:39.582Z,207.6115
2023-04-02T06:36:41.672Z,206.6671
2023-04-02T06:37:43.824Z,200.2758
2023-04-02T06:38:45.933Z,202.5329
2023-04-02T06:39:48.040Z,185.2174
2023-04-02T06:40:50.150Z,223.1065
2023-04-02T06:41:52.253Z,267.8732
2023-04-02T06:42:54.363Z,220.0358
2023-04-02T06:43:56.484Z,242.1711
2023-04-02T06:44:58.569Z,207.3191
2023-04-02T06:46:00.693Z,237.2280
2023-04-02T06:47:03.237Z,224.2225
2023-04-02T06:48:05.396Z,242.6586
2023-04-02T06:49:07.502Z,276.6372
2023-04-02T06:50:09.601Z,237.9337
2023-04-02T06:51:11.692Z,229.9174
2023-04-02T06:52:13.778Z,251.8130
2023-04-02T06:53:15.937Z,230.1167
2023-04-02T06:54:18.032Z,236.5157
2023-04-02T06:55:20.163Z,240.5178
2023-04-02T06:56:22.253Z,237.9803
2023-04-02T06:57:24.417Z,211.1454
2023-04-02T06:58:26.530Z,238.6488
2023-04-02T06:59:28.657Z,241.6406
2023-04-02T07:00:30.747Z,241.7924
2023-04-02T07:01:32.871Z,254.6635
2023-04-02T07:02:35.044Z,253.8845
2023-04-02T07:03:37.203Z,249.1143
2023-04-02T07:04:39.351Z,222.3003
2023-04-02T07:05:42.964Z,278.2941
2023-04-02T07:06:41.726Z,254.3075
2023-04-02T07:07:43.806Z,239.9146
2023-04-02T07:08:45.942Z,254.2577
2023-04-02T07:09:48.049Z,285.0859
2023-04-02T07:10:50.108Z,257.0813
2023-04-02T07:11:52.200Z,248.2619
2023-04-02T07:12:54.287Z,253.4716
2023-04-02T07:13:56.368Z,228.1930
2023-04-02T07:14:58.450Z,230.3167
2023-04-02T07:16:00.598Z,256.0616
2023-04-02T07:17:02.929Z,248.2452
2023-04-02T07:18:05.018Z,258.6059
2023-04-02T07:19:07.265Z,252.3561
2023-04-02T07:20:09.342Z,231.7238
2023-04-02T07:21:11.397Z,231.3029
2023-04-02T07:22:13.493Z,235.3486
2023-04-02T07:23:17.037Z,232.6693
2023-04-02T07:24:15.790Z,235.3107
2023-04-02T07:25:17.908Z,208.5169
2023-04-02T07:26:20.265Z,266.9271
2023-04-02T07:27:22.357Z,267.2449
2023-04-02T07:28:24.506Z,224.0104
2023-04-02T07:29:26.643Z,237.9579
2023-04-02T07:30:28.763Z,188.5339
2023-04-02T07:31:30.941Z,212.4238
2023-04-02T07:32:33.071Z,212.1101
2023-04-02T07:33:35.142Z,232.1362
2023-04-02T07:34:35.379Z,255.2806
2023-04-02T07:35:37.797Z,262.7986
2023-04-02T07:36:40.050Z,249.6820
2023-04-02T07:37:42.156Z,262.3690
2023-04-02T07:38:44.235Z,254.9016
2023-04-02T07:39:46.389Z,263.4606
2023-04-02T07:40:48.490Z,279.3927
2023-04-02T07:41:50.613Z,273.9292
2023-04-02T07:42:52.748Z,264.6104
2023-04-02T07:43:54.825Z,243.8659
2023-04-02T07:44:56.979Z,258.2666
2023-04-02T07:45:59.086Z,235.7723
2023-04-02T07:47:01.373Z,246.5009
2023-04-02T07:48:03.681Z,261.7750
2023-04-02T07:49:05.844Z,251.2761
2023-04-02T07:50:07.962Z,244.9897
2023-04-02T07:51:10.106Z,282.8320
2023-04-02T07:52:12.230Z,288.3912
2023-04-02T07:53:14.294Z,330.8972
2023-04-02T07:54:16.397Z,280.3628
2023-04-02T07:55:18.502Z,247.4353
2023-04-02T07:56:20.625Z,254.1838
2023-04-02T07:57:22.735Z,256.4573
2023-04-02T07:58:24.812Z,284.0039
2023-04-02T07:59:26.885Z,276.8917
2023-04-02T08:00:30.514Z,285.4045
2023-04-02T08:01:29.355Z,255.6207
2023-04-02T08:02:31.528Z,271.9431
2023-04-02T08:03:33.754Z,285.5754
2023-04-02T08:04:35.874Z,260.5469
2023-04-02T08:05:38.283Z,247.0179
2023-04-02T08:06:40.348Z,248.1583
2023-04-02T08:07:42.434Z,245.0106
2023-04-02T08:08:44.545Z,278.7706
2023-04-02T08:09:46.721Z,273.6938
2023-04-02T08:10:48.871Z,254.4358
2023-04-02T08:11:51.184Z,270.2190
2023-04-02T08:12:53.264Z,337.9365
2023-04-02T08:13:55.364Z,253.1468
2023-04-02T08:14:57.443Z,278.5981
2023-04-02T08:15:59.576Z,293.5093
2023-04-02T08:17:01.700Z,261.0211
2023-04-02T08:18:03.820Z,246.3956
2023-04-02T08:19:05.865Z,259.1840
2023-04-02T08:20:07.978Z,326.7249
2023-04-02T08:21:10.157Z,316.5490
2023-04-02T08:22:12.161Z,338.6951
2023-04-02T08:23:14.239Z,279.5364
2023-04-02T08:24:16.364Z,290.1149
2023-04-02T08:25:18.504Z,262.8147
2023-04-02T08:26:20.628Z,259.9555
2023-04-02T08:27:22.690Z,322.0203
2023-04-02T08:28:24.786Z,286.5063
2023-04-02T08:29:26.858Z,325.2487
2023-04-02T08:30:29.012Z,315.4892
2023-04-02T08:31:31.101Z,279.9108
2023-04-02T08:32:33.261Z,295.3459
2023-04-02T08:33:35.366Z,245.1933
2023-04-02T08:34:37.473Z,272.6588
2023-04-02T08:35:39.776Z,316.4946
2023-04-02T08:36:42.154Z,259.7840
2023-04-02T08:37:44.246Z,241.2125
2023-04-02T08:38:46.351Z,273.1727
2023-04-02T08:39:48.453Z,231.2804
2023-04-02T08:40:50.576Z,255.5850
2023-04-02T08:41:52.690Z,286.4411
2023-04-02T08:42:54.787Z,292.0607
2023-04-02T08:43:56.887Z,286.2000
2023-04-02T08:44:58.984Z,296.3950
2023-04-02T08:46:01.344Z,257.6896
2023-04-02T08:47:03.453Z,287.8915
2023-04-02T08:48:05.601Z,268.9764
2023-04-02T08:49:07.733Z,242.2938
2023-04-02T08:50:09.824Z,257.5706
2023-04-02T08:51:11.950Z,250.2718
2023-04-02T08:52:14.075Z,216.0207
2023-04-02T08:53:16.205Z,248.3964
2023-04-02T08:54:18.317Z,272.8677
2023-04-02T08:55:20.422Z,257.1174
2023-04-02T08:56:22.558Z,259.2423
2023-04-02T08:57:24.736Z,257.7446
2023-04-02T08:58:27.026Z,266.4762
2023-04-02T08:59:29.146Z,250.9727
2023-04-02T09:00:31.296Z,237.0142
2023-04-02T09:01:33.396Z,270.7140
2023-04-02T09:02:35.584Z,293.3789
2023-04-02T09:03:37.708Z,290.2568
2023-04-02T09:04:39.901Z,291.3799
2023-04-02T09:05:42.149Z,266.4397
2023-04-02T09:06:44.213Z,248.8262
2023-04-02T09:07:46.377Z,257.7254
2023-04-02T09:08:46.791Z,263.9916
2023-04-02T09:09:49.033Z,341.5340
2023-04-02T09:10:51.153Z,267.6534
2023-04-02T09:11:53.302Z,285.9041
2023-04-02T09:12:55.430Z,258.2334
2023-04-02T09:13:57.600Z,277.0316
2023-04-02T09:14:59.725Z,262.4785
2023-04-02T09:16:01.936Z,279.0513
2023-04-02T09:17:04.080Z,239.6841
2023-04-02T09:18:06.202Z,254.0656
2023-04-02T09:19:08.300Z,262.0626
2023-04-02T09:20:10.408Z,262.8576
2023-04-02T09:21:12.530Z,253.3182
2023-04-02T09:22:14.644Z,247.1135
2023-04-02T09:23:16.775Z,193.0892
2023-04-02T09:24:18.865Z,214.5254
2023-04-02T09:25:20.983Z,225.3878
2023-04-02T09:26:23.108Z,245.0242
2023-04-02T09:27:25.196Z,268.8054
2023-04-02T09:28:27.302Z,244.1314
2023-04-02T09:29:29.410Z,251.9970
2023-04-02T09:30:31.511Z,270.5073
2023-04-02T09:31:33.887Z,258.8511
2023-04-02T09:32:36.055Z,262.0468
2023-04-02T09:33:38.196Z,268.3336
2023-04-02T09:34:40.294Z,295.7992
2023-04-02T09:35:42.542Z,276.7628
2023-04-02T09:36:44.757Z,258.0204
2023-04-02T09:37:46.872Z,256.1996
2023-04-02T09:38:48.982Z,222.4774
2023-04-02T09:39:51.127Z,247.0322
2023-04-02T09:40:53.214Z,261.1568
2023-04-02T09:42:04.962Z,250.3548
2023-04-02T09:42:56.440Z,236.5930
2023-04-02T09:43:58.613Z,237.2925
2023-04-02T09:45:00.712Z,268.4088
2023-04-02T09:46:02.808Z,272.7537
2023-04-02T09:47:05.017Z,265.6588
2023-04-02T09:48:07.259Z,260.3970
2023-04-02T09:49:09.378Z,237.6820
2023-04-02T09:50:11.510Z,234.7843
2023-04-02T09:51:13.615Z,235.5749
2023-04-02T09:52:15.725Z,239.5845
2023-04-02T09:53:17.812Z,217.6282
2023-04-02T09:54:19.929Z,211.4787
2023-04-02T09:55:22.026Z,244.1687
2023-04-02T09:56:24.340Z,259.8321
2023-04-02T09:57:26.461Z,238.4815
2023-04-02T09:58:28.545Z,242.4645
2023-04-02T09:59:30.644Z,229.7810
2023-04-02T10:00:32.952Z,236.1936
2023-04-02T10:01:35.252Z,235.4960
2023-04-02T10:02:37.655Z,228.6646
2023-04-02T10:03:39.804Z,231.4174
2023-04-02T10:04:41.968Z,202.7728
2023-04-02T10:05:44.319Z,215.5952
2023-04-02T10:06:46.487Z,241.8087
2023-04-02T10:07:48.548Z,283.7606
2023-04-02T10:08:50.654Z,211.4891
2023-04-02T10:09:52.737Z,250.6064
2023-04-02T10:10:55.132Z,230.3015
2023-04-02T10:11:57.206Z,209.1573
2023-04-02T10:12:59.290Z,246.1247
2023-04-02T10:14:01.407Z,255.1958
2023-04-02T10:15:03.596Z,250.2063
2023-04-02T10:16:05.838Z,253.3141
2023-04-02T10:17:08.022Z,277.7793
2023-04-02T10:18:10.145Z,232.4688
2023-04-02T10:19:12.250Z,265.1684
2023-04-02T10:20:14.426Z,285.7156
2023-04-02T10:21:14.867Z,239.6367
2023-04-02T10:22:16.989Z,281.3479
2023-04-02T10:23:19.353Z,324.7590
2023-04-02T10:24:21.432Z,271.5611
2023-04-02T10:25:23.563Z,274.9717
2023-04-02T10:26:25.705Z,275.5509
2023-04-02T10:27:27.801Z,310.2284
2023-04-02T10:28:30.276Z,255.9268
2023-04-02T10:29:32.410Z,296.2381
2023-04-02T10:30:34.553Z,287.5569
2023-04-02T10:31:36.716Z,284.7400
2023-04-02T10:32:38.831Z,272.9372
2023-04-02T10:33:41.034Z,281.6387
2023-04-02T10:34:43.342Z,288.6368
2023-04-02T10:35:45.543Z,309.4563
2023-04-02T10:36:47.652Z,299.6062
2023-04-02T10:37:49.772Z,250.8148
2023-04-02T10:38:51.888Z,254.2639
2023-04-02T10:39:54.015Z,283.8110
2023-04-02T10:40:57.025Z,253.5568
2023-04-02T10:41:59.186Z,273.7442
2023-04-02T10:43:01.324Z,269.5779
2023-04-02T10:44:16.654Z,297.5158
2023-04-02T10:45:04.639Z,277.2915
2023-04-02T10:46:06.807Z,312.5186
2023-04-02T10:47:08.899Z,270.8126
2023-04-02T10:48:11.084Z,287.6546
2023-04-02T10:49:13.197Z,291.0356
2023-04-02T10:50:15.245Z,329.7397
2023-04-02T10:51:17.397Z,320.4053
2023-04-02T10:52:19.468Z,277.3650
2023-04-02T10:53:21.642Z,345.3400
2023-04-02T10:54:23.721Z,256.6232
2023-04-02T10:55:25.833Z,254.8684
2023-04-02T10:56:29.809Z,282.7792
2023-04-02T10:57:29.159Z,271.2199
2023-04-02T10:58:31.226Z,251.7706
2023-04-02T10:59:33.297Z,281.0005
2023-04-02T11:00:35.457Z,296.8380
2023-04-02T11:01:37.655Z,281.3791
2023-04-02T11:02:39.874Z,286.2133
2023-04-02T11:03:42.190Z,283.5327
2023-04-02T11:04:44.370Z,359.9292
2023-04-02T11:05:46.559Z,294.5641
2023-04-02T11:06:48.699Z,6.9200
2023-04-02T11:07:50.836Z,75.9261
2023-04-02T11:08:52.962Z,359.5451
2023-04-02T11:09:55.126Z,278.3937
2023-04-02T11:10:57.294Z,276.2020
2023-04-02T11:11:59.410Z,244.3969
2023-04-02T11:13:01.754Z,250.2971
2023-04-02T11:14:03.929Z,273.3876
2023-04-02T11:15:06.026Z,246.5094
2023-04-02T11:16:08.224Z,244.0679
2023-04-02T11:17:10.356Z,270.9311
2023-04-02T11:18:12.473Z,244.2845
2023-04-02T11:19:14.624Z,234.4861
2023-04-02T11:20:16.771Z,228.6235
2023-04-02T11:21:18.913Z,217.1255
2023-04-02T11:22:21.082Z,261.0499
2023-04-02T11:23:23.219Z,238.2886
2023-04-02T11:24:25.378Z,236.9480
2023-04-02T11:25:27.774Z,212.9490
2023-04-02T11:26:29.909Z,225.9862
2023-04-02T11:27:32.063Z,218.8232
2023-04-02T11:28:34.271Z,217.5084
2023-04-02T11:29:36.422Z,137.6596
2023-04-02T11:30:38.552Z,258.4915
2023-04-02T11:31:40.777Z,298.3040
2023-04-02T11:32:43.168Z,314.5573
2023-04-02T11:33:47.364Z,254.0305
2023-04-02T11:34:56.387Z,247.8013
2023-04-02T11:35:48.734Z,246.9415
2023-04-02T11:36:50.884Z,247.5560
2023-04-02T11:37:53.063Z,0.0000
2023-04-02T11:38:59.635Z,246.8893
2023-04-02T11:39:56.398Z,315.9764
2023-04-02T11:40:58.546Z,354.8687
2023-04-02T11:42:00.714Z,243.2139
2023-04-02T11:43:02.900Z,198.2228
2023-04-02T11:44:05.018Z,203.7240
2023-04-02T11:45:07.196Z,239.9796
2023-04-02T11:46:09.341Z,270.9888
2023-04-02T11:47:11.479Z,286.6747
2023-04-02T11:48:13.651Z,278.9073
2023-04-02T11:49:15.979Z,294.7431
2023-04-02T11:50:18.228Z,277.1213
2023-04-02T11:51:21.329Z,304.4689
2023-04-02T11:52:23.810Z,287.0283
2023-04-02T11:53:25.951Z,309.4550
2023-04-02T11:54:28.083Z,304.8107
2023-04-02T11:55:30.212Z,336.3108
2023-04-02T11:56:32.324Z,286.1190
2023-04-02T11:57:34.577Z,250.8646
2023-04-02T11:58:36.772Z,307.9031
2023-04-02T11:59:38.915Z,337.0854
2023-04-02T12:00:41.326Z,280.4805
2023-04-02T12:01:43.455Z,334.1816
2023-04-02T12:02:45.716Z,325.2685
2023-04-02T12:03:47.874Z,298.3528
2023-04-02T12:04:49.996Z,333.7679
2023-04-02T12:05:52.117Z,324.2174
2023-04-02T12:06:54.266Z,320.0038
2023-04-02T12:07:56.438Z,326.5514
2023-04-02T12:08:58.580Z,345.6009
2023-04-02T12:10:00.724Z,337.3606
2023-04-02T12:11:02.876Z,342.8213
2023-04-02T12:12:04.991Z,292.2392
2023-04-02T12:13:07.151Z,340.6652
2023-04-02T12:14:09.313Z,350.1946
2023-04-02T12:15:11.540Z,352.6740
2023-04-02T12:16:13.694Z,341.5017
2023-04-02T12:17:15.884Z,295.1318
2023-04-02T12:18:18.018Z,263.0371
2023-04-02T12:19:20.195Z,268.3410
2023-04-02T12:20:22.335Z,254.5384
2023-04-02T12:21:24.465Z,294.1650
2023-04-02T12:22:26.856Z,255.0339
2023-04-02T12:23:28.977Z,245.4973
2023-04-02T12:24:31.141Z,256.4678
2023-04-02T12:25:33.310Z,305.3266
2023-04-02T12:26:35.442Z,333.8632